Terminal Aerodrome Forecast
Issued by NWS Charleston, WV

Current Version | Previous Version | Text Only | Print | Product List | Glossary Off
Versions: 1 2 3 4 5 6 7 8 9 10 11 12 13 14 15 16 17 18 19 20 21 22 23 24 25 26 27 28 29 30

000
FTUS41 KRLX 191621 AAC
TAFPKB
TAF AMD
KPKB 191621Z 1916/2012 29010G18KT P6SM OVC040
     FM200200 27010KT P6SM BKN040
     FM200500 26009KT P6SM SCT050
     FM200800 25007KT P6SM SCT150=

USA.gov is the U.S. government's official web portal to all federal, state and local government web resources and services.